Time;durP1;ratioP1;P1;durP2;ratioP2;P2;SDS_P1;SDS_P2;PMS_P1;PMS_P2;Temp;Humidity;BMP_temperature;BMP_pressure;BME280_temperature;BME280_humidity;BME280_pressure;Samples;Min_cycle;Max_cycle;Signal;HPM_P1;HPM_P2
2021/09/16 00:09:17;;;;;;;5.05;3.35;;;19.80;77.70;;;;;;20815196;28;20030;-78
2021/09/16 00:19:18;;;;;;;4.03;2.72;;;19.80;77.50;;;;;;20807369;28;20446;-78
2021/09/16 00:29:18;;;;;;;4.20;2.92;;;19.80;77.40;;;;;;20823160;28;20094;-78
2021/09/16 00:39:20;;;;;;;4.22;3.80;;;19.80;77.40;;;;;;20821784;28;20041;-79
2021/09/16 00:49:20;;;;;;;4.65;3.42;;;19.80;77.40;;;;;;20821508;28;20044;-79
2021/09/16 00:59:21;;;;;;;4.60;3.20;;;19.80;77.40;;;;;;20821137;28;20466;-79
2021/09/16 01:09:24;;;;;;;4.28;2.30;;;19.80;77.50;;;;;;20836301;28;20057;-79
2021/09/16 01:19:26;;;;;;;3.50;2.88;;;19.80;77.40;;;;;;20819600;28;20064;-79
2021/09/16 01:29:30;;;;;;;3.08;2.47;;;19.80;77.40;;;;;;20817810;28;20034;-79
2021/09/16 01:39:31;;;;;;;5.15;3.30;;;19.80;77.40;;;;;;20835621;28;20061;-78
2021/09/16 01:49:32;;;;;;;2.65;1.85;;;19.70;77.20;;;;;;20817649;28;20476;-78
2021/09/16 01:59:33;;;;;;;3.65;2.38;;;19.80;77.30;;;;;;20815478;28;20042;-79
2021/09/16 02:09:34;;;;;;;3.80;2.20;;;19.80;77.30;;;;;;20799425;28;20068;-79
2021/09/16 02:19:34;;;;;;;4.80;2.83;;;19.80;77.30;;;;;;20814005;28;20642;-78
2021/09/16 02:29:35;;;;;;;3.72;2.40;;;19.80;77.30;;;;;;20813069;28;20675;-78
2021/09/16 02:39:36;;;;;;;3.28;2.25;;;19.70;77.20;;;;;;20812537;28;20049;-78
2021/09/16 02:49:38;;;;;;;2.50;1.95;;;19.70;77.10;;;;;;20813010;28;20037;-78
2021/09/16 02:59:39;;;;;;;4.32;2.28;;;19.70;77.10;;;;;;20828463;28;20045;-78
2021/09/16 03:09:42;;;;;;;3.22;1.98;;;19.70;77.00;;;;;;20811194;28;20498;-78
2021/09/16 03:19:43;;;;;;;1.90;1.70;;;19.70;76.90;;;;;;20826097;28;20095;-78
2021/09/16 03:29:43;;;;;;;3.65;1.92;;;19.70;76.90;;;;;;20794397;28;20444;-78
2021/09/16 03:39:44;;;;;;;4.00;1.80;;;19.70;76.80;;;;;;20809002;28;20483;-79
2021/09/16 03:49:46;;;;;;;2.17;1.60;;;19.70;76.80;;;;;;20809675;28;20109;-78
2021/09/16 03:59:47;;;;;;;1.77;1.45;;;19.70;76.70;;;;;;20825915;28;20427;-78
2021/09/16 04:09:48;;;;;;;1.65;1.13;;;19.70;76.50;;;;;;20842170;28;20026;-83
2021/09/16 04:19:49;;;;;;;2.47;1.65;;;19.70;76.40;;;;;;20807202;28;20086;-82
2021/09/16 04:29:49;;;;;;;1.10;0.82;;;19.60;76.20;;;;;;20837899;28;20381;-82
2021/09/16 04:39:59;;;;;;;2.85;1.30;;;19.70;76.10;;;;;;20833833;28;20037;-79
2021/09/16 04:50:02;;;;;;;2.38;1.23;;;19.60;76.00;;;;;;20755282;28;20045;-73
2021/09/16 05:00:04;;;;;;;2.10;1.50;;;19.70;75.90;;;;;;20809330;28;20033;-79
2021/09/16 05:10:05;;;;;;;1.15;0.95;;;19.60;75.80;;;;;;20814945;28;20036;-77
2021/09/16 05:20:06;;;;;;;4.15;0.80;;;19.60;75.70;;;;;;20814156;28;20037;-77
2021/09/16 05:30:06;;;;;;;2.03;0.90;;;19.60;75.60;;;;;;20756644;28;20116;-79
2021/09/16 05:40:10;;;;;;;1.35;0.93;;;19.60;75.60;;;;;;20828954;28;20049;-80
2021/09/16 05:50:10;;;;;;;0.98;0.88;;;19.60;75.40;;;;;;20810069;28;20029;-82
2021/09/16 06:00:13;;;;;;;3.50;0.93;;;19.60;75.30;;;;;;20804482;28;20407;-79
2021/09/16 06:10:14;;;;;;;2.65;0.70;;;19.60;75.20;;;;;;20813656;28;20080;-80
2021/09/16 06:20:15;;;;;;;3.03;1.20;;;19.60;75.10;;;;;;20829437;28;20452;-79
2021/09/16 06:30:22;;;;;;;3.78;1.23;;;19.60;75.20;;;;;;20823780;28;20434;-84
2021/09/16 06:40:23;;;;;;;3.95;1.92;;;19.60;75.10;;;;;;20809863;28;20438;-81
2021/09/16 06:50:24;;;;;;;1.30;1.10;;;19.60;74.90;;;;;;20811411;28;20068;-81
2021/09/16 07:00:26;;;;;;;1.38;0.80;;;19.60;74.70;;;;;;20807671;28;20045;-81
2021/09/16 07:10:33;;;;;;;4.22;0.98;;;19.50;74.60;;;;;;20792351;28;20033;-78
2021/09/16 07:20:37;;;;;;;2.33;0.75;;;19.60;74.60;;;;;;20808973;28;20056;-81
2021/09/16 07:30:38;;;;;;;3.28;0.50;;;19.60;74.60;;;;;;20739510;28;20439;-86
2021/09/16 07:40:40;;;;;;;2.15;0.50;;;19.60;74.30;;;;;;20802809;28;20136;-78
2021/09/16 07:50:42;;;;;;;1.48;0.40;;;19.60;74.30;;;;;;20838640;28;20155;-86
2021/09/16 08:00:43;;;;;;;1.85;0.60;;;19.60;74.20;;;;;;20806706;28;20037;-85
2021/09/16 08:10:44;;;;;;;1.67;0.60;;;19.60;74.10;;;;;;20806085;28;20048;-85
2021/09/16 08:20:49;;;;;;;1.83;0.75;;;19.60;73.90;;;;;;20833435;28;20045;-83
2021/09/16 08:30:53;;;;;;;1.53;0.40;;;19.60;73.90;;;;;;20806226;28;20373;-82
2021/09/16 08:40:59;;;;;;;3.42;0.40;;;19.60;73.90;;;;;;20804173;28;20041;-85
2021/09/16 08:51:00;;;;;;;3.65;0.60;;;19.60;73.80;;;;;;20838891;28;20756;-85
2021/09/16 09:01:01;;;;;;;2.05;0.50;;;19.60;73.80;;;;;;20820815;28;20063;-82
2021/09/16 09:11:05;;;;;;;3.10;1.13;;;19.60;73.80;;;;;;20836766;28;20091;-83
2021/09/16 09:21:09;;;;;;;0.93;0.40;;;19.60;73.80;;;;;;20834675;28;20069;-84
2021/09/16 09:31:15;;;;;;;1.33;0.45;;;19.60;73.80;;;;;;20832277;28;20487;-81
2021/09/16 09:41:34;;;;;;;1.23;0.60;;;19.50;73.80;;;;;;20782271;28;20038;-86
2021/09/16 09:51:35;;;;;;;2.50;0.65;;;19.60;73.90;;;;;;20825659;28;20049;-76
2021/09/16 10:01:36;;;;;;;1.13;0.50;;;19.60;74.00;;;;;;20822380;28;20041;-81
2021/09/16 10:12:07;;;;;;;0.57;0.55;;;19.60;74.10;;;;;;20786700;28;20033;-81
2021/09/16 10:22:12;;;;;;;0.68;0.32;;;19.50;74.10;;;;;;21173052;23;20384;-82
2021/09/16 10:32:27;;;;;;;3.20;0.50;;;19.50;74.10;;;;;;20802043;28;20049;-82
2021/09/16 10:42:47;;;;;;;1.60;0.50;;;19.50;74.20;;;;;;20800440;28;20111;-80
2021/09/16 10:52:48;;;;;;;1.60;0.57;;;19.60;74.20;;;;;;20776410;28;20283;-80
2021/09/16 11:02:49;;;;;;;0.95;0.50;;;19.50;74.20;;;;;;20728853;28;20033;-76
2021/09/16 11:12:49;;;;;;;5.03;1.02;;;19.50;74.30;;;;;;20806917;28;20044;-77
2021/09/16 11:22:50;;;;;;;1.95;0.90;;;19.50;74.30;;;;;;20776824;28;20436;-80
2021/09/16 11:32:51;;;;;;;0.90;0.55;;;19.50;74.30;;;;;;20732807;28;20480;-79
2021/09/16 11:42:54;;;;;;;2.25;1.00;;;19.50;74.20;;;;;;20765151;28;20052;-79
2021/09/16 11:52:56;;;;;;;1.70;0.77;;;19.50;74.10;;;;;;20797641;28;20065;-76
2021/09/16 12:02:57;;;;;;;2.15;0.63;;;19.50;74.10;;;;;;20787502;28;20121;-77
2021/09/16 12:12:57;;;;;;;1.50;0.80;;;19.60;74.10;;;;;;20756527;28;20069;-78
2021/09/16 12:22:58;;;;;;;1.55;0.90;;;19.50;74.10;;;;;;20800091;28;20121;-76
2021/09/16 12:32:59;;;;;;;2.08;0.95;;;19.50;74.10;;;;;;20820201;28;20129;-78
2021/09/16 12:43:06;;;;;;;3.92;1.10;;;19.50;74.10;;;;;;20787582;28;20030;-77
2021/09/16 12:53:15;;;;;;;0.98;0.88;;;19.50;74.10;;;;;;20835916;28;20476;-79
2021/09/16 13:03:16;;;;;;;2.72;0.93;;;19.50;74.10;;;;;;20836789;28;20036;-82
2021/09/16 13:13:25;;;;;;;2.65;0.90;;;19.60;74.00;;;;;;20814690;28;20091;-82
2021/09/16 13:23:26;;;;;;;3.22;1.25;;;19.60;74.00;;;;;;20774768;28;20048;-80
2021/09/16 13:33:28;;;;;;;2.60;1.00;;;19.60;73.90;;;;;;20817467;28;20112;-81
2021/09/16 13:43:29;;;;;;;2.00;1.08;;;19.60;74.00;;;;;;20767605;28;20045;-78
2021/09/16 13:53:29;;;;;;;2.85;0.80;;;19.50;73.90;;;;;;20750468;28;20042;-80
2021/09/16 14:03:30;;;;;;;1.98;0.75;;;19.60;74.00;;;;;;20747746;28;20042;-78
2021/09/16 14:13:30;;;;;;;1.58;0.98;;;19.50;73.90;;;;;;20731485;28;20064;-77
2021/09/16 14:23:31;;;;;;;4.25;1.10;;;19.50;73.90;;;;;;20807509;28;20186;-79
2021/09/16 14:33:32;;;;;;;5.90;2.40;;;19.50;73.90;;;;;;20830422;28;20057;-77
2021/09/16 14:43:32;;;;;;;5.22;2.03;;;19.60;74.10;;;;;;20811485;28;20060;-82
2021/09/16 14:53:38;;;;;;;8.68;2.05;;;19.60;74.10;;;;;;20798203;28;20033;-79
2021/09/16 15:03:44;;;;;;;2.90;1.95;;;19.60;74.30;;;;;;20770709;28;20077;-79
2021/09/16 15:13:45;;;;;;;4.97;1.77;;;19.70;74.20;;;;;;20745314;28;20038;-81
2021/09/16 15:23:45;;;;;;;10.38;1.95;;;19.60;74.20;;;;;;20711950;28;20038;-84
2021/09/16 15:33:49;;;;;;;3.55;1.23;;;19.60;74.10;;;;;;20744872;28;20052;-84
2021/09/16 15:43:49;;;;;;;3.50;1.65;;;19.60;74.00;;;;;;20741466;28;20040;-83
2021/09/16 15:53:50;;;;;;;4.40;1.50;;;19.60;74.10;;;;;;20743995;28;20038;-79
2021/09/16 16:03:51;;;;;;;5.40;1.17;;;19.60;74.10;;;;;;20743099;28;20133;-84
2021/09/16 16:13:52;;;;;;;4.70;1.33;;;19.60;74.10;;;;;;20759795;28;20584;-82
2021/09/16 16:23:53;;;;;;;5.03;1.23;;;19.50;73.90;;;;;;20753328;28;20396;-81
2021/09/16 16:33:54;;;;;;;1.10;0.90;;;19.50;73.90;;;;;;20789162;28;20041;-83
2021/09/16 16:43:55;;;;;;;3.90;1.33;;;19.50;73.90;;;;;;20804987;28;20784;-81
2021/09/16 16:53:55;;;;;;;2.42;1.15;;;19.50;73.90;;;;;;20810787;28;20029;-81
2021/09/16 17:03:56;;;;;;;2.15;1.08;;;19.50;73.90;;;;;;20801870;28;20129;-83
2021/09/16 17:13:57;;;;;;;2.22;0.90;;;19.60;74.10;;;;;;20818483;28;20044;-84
2021/09/16 17:23:57;;;;;;;2.03;0.90;;;19.50;74.00;;;;;;20824904;28;20095;-83
2021/09/16 17:33:58;;;;;;;1.65;1.13;;;19.50;74.00;;;;;;20815667;28;20284;-84
2021/09/16 17:43:58;;;;;;;1.30;0.90;;;19.50;74.10;;;;;;20813588;28;20099;-83
2021/09/16 17:53:59;;;;;;;5.78;0.88;;;19.50;74.20;;;;;;20815651;28;20037;-81
2021/09/16 18:04:00;;;;;;;1.80;0.88;;;19.50;74.20;;;;;;20814231;28;20044;-80
2021/09/16 18:14:01;;;;;;;2.88;0.98;;;19.50;74.30;;;;;;20828942;28;20122;-82
2021/09/16 18:24:01;;;;;;;1.65;0.88;;;19.40;74.20;;;;;;20812028;28;20132;-82
2021/09/16 18:34:02;;;;;;;1.52;0.85;;;19.50;74.30;;;;;;20811209;28;20033;-81
2021/09/16 18:44:03;;;;;;;3.42;1.10;;;19.50;74.30;;;;;;20810915;28;20509;-81
2021/09/16 18:54:03;;;;;;;2.88;0.80;;;19.40;74.20;;;;;;20810880;28;20116;-83
2021/09/16 19:04:05;;;;;;;3.08;0.73;;;19.40;74.20;;;;;;20793807;28;20550;-83
2021/09/16 19:14:08;;;;;;;1.15;0.68;;;19.40;74.10;;;;;;20824989;28;20026;-82
2021/09/16 19:24:11;;;;;;;0.63;0.63;;;19.40;74.20;;;;;;20825633;28;20061;-83
2021/09/16 19:34:13;;;;;;;0.95;0.77;;;19.40;74.30;;;;;;20808996;28;20275;-79
2021/09/16 19:44:15;;;;;;;2.08;1.02;;;19.40;74.30;;;;;;20788605;28;20069;-81
2021/09/16 19:54:16;;;;;;;1.70;0.57;;;19.40;74.30;;;;;;20806291;28;20100;-80
2021/09/16 20:04:16;;;;;;;1.67;0.60;;;19.40;74.30;;;;;;20805343;28;20120;-79
2021/09/16 20:14:17;;;;;;;1.77;0.80;;;19.40;74.30;;;;;;20789034;28;20110;-80
2021/09/16 20:24:20;;;;;;;1.88;0.60;;;19.40;74.30;;;;;;20824693;28;20387;-79
2021/09/16 20:34:21;;;;;;;2.03;0.80;;;19.40;74.20;;;;;;20820156;28;20037;-80
2021/09/16 20:44:23;;;;;;;0.98;0.65;;;19.40;74.30;;;;;;20835844;28;20033;-80
2021/09/16 20:54:24;;;;;;;2.53;0.82;;;19.30;74.20;;;;;;20834779;28;20038;-79
2021/09/16 21:04:24;;;;;;;2.03;0.68;;;19.40;74.30;;;;;;20817557;28;20045;-80
2021/09/16 21:14:25;;;;;;;1.67;0.90;;;19.30;74.20;;;;;;20816650;28;20044;-79
2021/09/16 21:24:25;;;;;;;1.27;0.68;;;19.30;74.20;;;;;;20815532;28;20046;-80
2021/09/16 21:34:26;;;;;;;2.03;0.70;;;19.30;74.90;;;;;;20815438;28;20111;-79
2021/09/16 21:44:27;;;;;;;2.40;0.90;;;19.30;74.20;;;;;;20814574;28;20038;-80
2021/09/16 21:54:27;;;;;;;1.53;0.70;;;19.40;74.20;;;;;;20814099;28;20037;-79
2021/09/16 22:04:28;;;;;;;1.30;0.77;;;19.30;74.20;;;;;;20830322;28;20498;-81
2021/09/16 22:14:29;;;;;;;1.33;0.70;;;19.30;74.20;;;;;;20813156;28;20805;-80
2021/09/16 22:24:29;;;;;;;1.67;0.73;;;19.30;74.20;;;;;;20811885;28;20037;-80
2021/09/16 22:34:31;;;;;;;2.05;0.85;;;19.30;74.20;;;;;;20811447;28;20083;-80
2021/09/16 22:44:33;;;;;;;1.13;0.68;;;19.30;74.30;;;;;;20826805;28;20049;-81
2021/09/16 22:54:33;;;;;;;1.75;0.90;;;19.30;74.20;;;;;;20825185;28;20472;-80
2021/09/16 23:04:38;;;;;;;1.85;0.85;;;19.30;74.20;;;;;;20809510;28;20045;-80
2021/09/16 23:14:38;;;;;;;2.83;0.88;;;19.30;74.10;;;;;;20809612;28;20033;-81
2021/09/16 23:24:39;;;;;;;1.60;1.00;;;19.30;74.10;;;;;;20808312;28;20092;-79
2021/09/16 23:34:40;;;;;;;1.88;0.80;;;19.30;74.10;;;;;;20807779;28;20041;-80
2021/09/16 23:44:40;;;;;;;0.98;0.60;;;19.30;74.00;;;;;;20791354;28;20046;-80
2021/09/16 23:54:41;;;;;;;1.20;0.88;;;19.20;73.90;;;;;;20806765;28;20044;-81
